Carpathia — WBC2454 — position and weather

sailwx.info

Track history (hours):
 
Tides and Currents Weather Stations Pressure Air Temp Water Temp Dewpoint Dewpoint Depression Visibility Wind Speed Wind Dir Waves Ship Positions

Carpathia

Owner: BRUSTOWICZ, THEODORE R, COVINGTON, LA. More information available from US FCC via Universal Licensing System and Coast Guard Vessel Documentation Center.

Last reported at 2014-Oct-20 07:33 UTC. Time now 2014-Oct-23 15:09 UTC.
Position N 29°47' W 092°12'.

Length 23 m; draft 4 m.

Type: Towing. MMSI: 366993420.

Date/timePositionNaut miles runAvg speedWind from/ knotsBaromVisibWave heightAir tempDewpointWater temp
2014-Oct-20 07:33N 29°47' W 092°12'23 4.1
2014-Oct-20 02:03N 29°46' W 091°46'3 5.8
2014-Oct-20 01:33N 29°46' W 091°43'6 5.9
2014-Oct-20 00:33N 29°45' W 091°36'6 6.2
2014-Oct-19 23:33N 29°42' W 091°30'6 5.6
2014-Oct-19 22:34N 29°39' W 091°24'5 5.4
2014-Oct-19 21:33N 29°39' W 091°18'6 5.6
2014-Oct-19 20:33N 29°42' W 091°13'3 3.0
2014-Oct-19 19:33N 29°45' W 091°14'8 7.6
2014-Oct-19 18:33N 29°48' W 091°22'18 0.6
2014-Oct-18 11:06N 30°05' W 091°28'4 4.0
2014-Oct-18 10:08N 30°01' W 091°29'3 4.5
2014-Oct-18 09:33N 29°59' W 091°28'4 4.5
2014-Oct-18 08:33N 29°55' W 091°27'4 4.3
2014-Oct-18 07:33N 29°51' W 091°25'4 4.4
2014-Oct-18 06:33N 29°47' W 091°22'4 4.2
2014-Oct-18 05:33N 29°46' W 091°17'4 3.5
2014-Oct-18 04:33N 29°44' W 091°14'4 3.9
2014-Oct-18 03:33N 29°40' W 091°14'4 4.5
2014-Oct-18 02:33N 29°39' W 091°18'4 4.3
2014-Oct-18 01:33N 29°39' W 091°23'3 3.2
2014-Oct-18 00:33N 29°40' W 091°27'4 3.8
2014-Oct-17 23:33N 29°42' W 091°31'5 4.1
2014-Oct-17 22:23N 29°45' W 091°35'  
2014-Oct-12 07:19N 29°46' W 091°41'5 6.1
2014-Oct-12 06:33N 29°45' W 091°36'6 6.2
2014-Oct-12 05:33N 29°42' W 091°30'6 6.4
2014-Oct-12 04:33N 29°39' W 091°23'6 6.0
2014-Oct-12 03:33N 29°39' W 091°16'5 5.2
2014-Oct-12 02:33N 29°44' W 091°13'6 6.2
2014-Oct-12 01:33N 29°46' W 091°20'8 7.5
2014-Oct-12 00:33N 29°52' W 091°25'3 0.1
2014-Oct-10 18:33N 29°54' W 091°27'4 4.5
2014-Oct-10 17:33N 29°51' W 091°24'5 4.7
2014-Oct-10 16:33N 29°47' W 091°21'4 4.4
2014-Oct-10 15:33N 29°46' W 091°16'4 4.0
2014-Oct-10 14:33N 29°43' W 091°13'4 4.1
2014-Oct-10 13:33N 29°39' W 091°16'5 4.7
2014-Oct-10 12:33N 29°38' W 091°21'5 4.4
2014-Oct-10 11:27N 29°40' W 091°26'4 4.1
2014-Oct-10 10:33N 29°42' W 091°30'5 4.5
2014-Oct-10 09:30N 29°44' W 091°34'  
Track history (hours):
 
Tides and Currents Weather Stations Pressure Air Temp Water Temp Dewpoint Dewpoint Depression Visibility Wind Speed Wind Dir Waves Ship Positions

Carpathia

Owner: BRUSTOWICZ, THEODORE R, COVINGTON, LA. More information available from US FCC via Universal Licensing System and Coast Guard Vessel Documentation Center.

Last reported at 2014-Oct-20 07:33 UTC. Time now 2014-Oct-23 15:09 UTC.
Position N 29°47' W 092°12'.

Length 23 m; draft 4 m.

Type: Towing. MMSI: 366993420.

Date/timePositionNaut miles runAvg speedWind from/ knotsBaromVisibWave heightAir tempDewpointWater temp
2014-Oct-20 07:33N 29°47' W 092°12'23 4.1
2014-Oct-20 02:03N 29°46' W 091°46'3 5.8
2014-Oct-20 01:33N 29°46' W 091°43'6 5.9
2014-Oct-20 00:33N 29°45' W 091°36'6 6.2
2014-Oct-19 23:33N 29°42' W 091°30'6 5.6
2014-Oct-19 22:34N 29°39' W 091°24'5 5.4
2014-Oct-19 21:33N 29°39' W 091°18'6 5.6
2014-Oct-19 20:33N 29°42' W 091°13'3 3.0
2014-Oct-19 19:33N 29°45' W 091°14'8 7.6
2014-Oct-19 18:33N 29°48' W 091°22'18 0.6
2014-Oct-18 11:06N 30°05' W 091°28'4 4.0
2014-Oct-18 10:08N 30°01' W 091°29'3 4.5
2014-Oct-18 09:33N 29°59' W 091°28'4 4.5
2014-Oct-18 08:33N 29°55' W 091°27'4 4.3
2014-Oct-18 07:33N 29°51' W 091°25'4 4.4
2014-Oct-18 06:33N 29°47' W 091°22'4 4.2
2014-Oct-18 05:33N 29°46' W 091°17'4 3.5
2014-Oct-18 04:33N 29°44' W 091°14'4 3.9
2014-Oct-18 03:33N 29°40' W 091°14'4 4.5
2014-Oct-18 02:33N 29°39' W 091°18'4 4.3
2014-Oct-18 01:33N 29°39' W 091°23'3 3.2
2014-Oct-18 00:33N 29°40' W 091°27'4 3.8
2014-Oct-17 23:33N 29°42' W 091°31'5 4.1
2014-Oct-17 22:23N 29°45' W 091°35'  
2014-Oct-12 07:19N 29°46' W 091°41'5 6.1
2014-Oct-12 06:33N 29°45' W 091°36'6 6.2
2014-Oct-12 05:33N 29°42' W 091°30'6 6.4
2014-Oct-12 04:33N 29°39' W 091°23'6 6.0
2014-Oct-12 03:33N 29°39' W 091°16'5 5.2
2014-Oct-12 02:33N 29°44' W 091°13'6 6.2
2014-Oct-12 01:33N 29°46' W 091°20'8 7.5
2014-Oct-12 00:33N 29°52' W 091°25'3 0.1
2014-Oct-10 18:33N 29°54' W 091°27'4 4.5
2014-Oct-10 17:33N 29°51' W 091°24'5 4.7
2014-Oct-10 16:33N 29°47' W 091°21'4 4.4
2014-Oct-10 15:33N 29°46' W 091°16'4 4.0
2014-Oct-10 14:33N 29°43' W 091°13'4 4.1
2014-Oct-10 13:33N 29°39' W 091°16'5 4.7
2014-Oct-10 12:33N 29°38' W 091°21'5 4.4
2014-Oct-10 11:27N 29°40' W 091°26'4 4.1
2014-Oct-10 10:33N 29°42' W 091°30'5 4.5
2014-Oct-10 09:30N 29°44' W 091°34'  

Dump ship's entire track history